Lovell Field
KCHA : now visible

Airfield :











YOU CAN JOIN US ON...

 
LOGIN :

Register | Disclaimer

   EN    FR    IT 

 









Legend :    VFR   Marginal VFR   IFR   Intensive IFR   Very Intensive IFR
Visi :
Ceiling :
>= 8 km
>= 3000ft
5 to 8 km
1000 to 3000 ft
1500m to 5 km
500 to 1000 ft
800 to 1500m
200 to 500 ft
< 800m
< 200 ft
Symbols :   Thunderstorms  Fog  Heavy snow  Heavy precipitations  Wind > 20 kt






- Airport Elevation : 683 ft
- IATA code : CHA


KCHA - Lovell Field

CURRENT METAR :
  • 011753Z 36009KT 10SM BKN048 BKN250 13/02 A3001 RMK AO2 SLP162 T01280017 10133 20056 50000

EXPIRED METARs :
  • 011653Z 36007KT 10SM BKN048 BKN250 12/02 A3002 RMK AO2 SLP165 T01170017
  • 011553Z 32008KT 10SM BKN046 11/02 A3002 RMK AO2 SLP167 T01060017

TAF KCHA
Valid from the 01 at 18:00 until the 02 at 18:00 UTC


011721Z 0118/0218 35009KT P6SM FEW040
FM020200 35005KT P6SM FEW250



MET'MAP, your aeronautical weather chart ! - Copyright ORBIFLY December 2007 - Disclaimer

ORBIFLY MET'MAP TEAM :

Programming & Development : Alexandra Zaïnal
Concept & original design : Baudouin d'Aumeries
Assistance for programming : Marc-Olivier Méhu
Technical & hardware support : Manuel Goepfert

Contact : metmap@orbifly.com




SOURCES & CREDITS :

   NOAA       Earth
Advisory